| time (UTC) | temp F | wind direction | speed knots | gust knots | rain 1hr in | rain 24hr in | rain mn in | humidity % | barometer mb |
| 20260906114548 | 69 | 204 | 0.9 | 4.3 | 0.00 | 0.00 | 0.00 | 95 | 1018.3 |
| 20260906113047 | 69 | 0 | 0.0 | 1.7 | 0.00 | 0.00 | 0.00 | 95 | 1018.4 |
| 20260906111552 | 69 | 0 | 0.0 | 2.6 | 0.00 | 0.00 | 0.00 | 95 | 1018.2 |
| 20260906110051 | 69 | 191 | 0.9 | 2.6 | 0.00 | 0.00 | 0.00 | 95 | 1018.1 |
| 20260906104548 | 69 | 248 | 0.0 | 2.6 | 0.00 | 0.00 | 0.00 | 95 | 1018.2 |
| 20260906103048 | 69 | 226 | 0.9 | 3.5 | 0.00 | 0.00 | 0.00 | 95 | 1018.4 |
| 20260906101548 | 69 | 176 | 0.0 | 1.7 | 0.00 | 0.00 | 0.00 | 95 | 1018.1 |
| 20260906100047 | 68 | 0 | 0.0 | 0.9 | 0.00 | 0.00 | 0.00 | 94 | 1018.1 |
| 20260906094604 | 69 | 0 | 0.0 | 1.7 | 0.00 | 0.00 | 0.00 | 94 | 1017.9 |
| 20260906093059 | 69 | 171 | 0.0 | 1.7 | 0.00 | 0.00 | 0.00 | 94 | 1017.7 |
| 20260906091547 | 69 | 0 | 0.0 | 1.7 | 0.00 | 0.00 | 0.00 | 94 | 1017.4 |
| 20260906090109 | 69 | 0 | 0.9 | 7.0 | 0.00 | 0.00 | 0.00 | 93 | 1017.1 |
| 20260906084554 | 70 | 239 | 0.9 | 2.6 | 0.00 | 0.00 | 0.00 | 93 | 1017.2 |
| 20260906083048 | 70 | 275 | 0.9 | 2.6 | 0.00 | 0.00 | 0.00 | 93 | 1017.1 |
| 20260906081546 | 70 | 166 | 0.9 | 4.3 | 0.00 | 0.00 | 0.00 | 93 | 1017.1 |
| 20260906080043 | 70 | 0 | 0.9 | 4.3 | 0.00 | 0.00 | 0.00 | 92 | 1017.2 |
| 20260906074553 | 70 | 168 | 0.9 | 3.5 | 0.00 | 0.00 | 0.00 | 92 | 1017.1 |
| 20260906073049 | 71 | 82 | 0.9 | 3.5 | 0.00 | 0.00 | 0.00 | 92 | 1017.1 |
| 20260906071547 | 71 | 154 | 0.0 | 3.5 | 0.00 | 0.00 | 0.00 | 91 | 1017.4 |
| 20260906070049 | 71 | 126 | 0.0 | 2.6 | 0.00 | 0.00 | 0.00 | 91 | 1017.4 |
| 20260906064549 | 71 | 0 | 0.0 | 2.6 | 0.00 | 0.00 | 0.00 | 91 | 1017.5 |
| 20260906063054 | 71 | 38 | 0.0 | 3.5 | 0.00 | 0.00 | 0.00 | 91 | 1017.7 |
| 20260906061554 | 72 | 308 | 0.0 | 1.7 | 0.00 | 0.00 | 0.00 | 91 | 1018.0 |
| 20260906060048 | 72 | 0 | 0.0 | 2.6 | 0.00 | 0.00 | 0.00 | 90 | 1017.8 |
| 20260906054546 | 72 | 152 | 0.9 | 4.3 | 0.00 | 0.00 | 0.00 | 91 | 1017.7 |
| 20260906053105 | 73 | 348 | 0.0 | 1.7 | 0.00 | 0.00 | 0.00 | 90 | 1017.6 |
| 20260906051548 | 73 | 0 | 0.0 | 1.7 | 0.00 | 0.00 | 0.00 | 90 | 1017.6 |
| 20260906050047 | 73 | 216 | 0.0 | 2.6 | 0.00 | 0.00 | 0.00 | 89 | 1017.4 |
| 20260906044542 | 74 | 229 | 0.0 | 3.5 | 0.00 | 0.00 | 0.00 | 89 | 1017.4 |
| 20260906043039 | 74 | 0 | 0.0 | 2.6 | 0.00 | 0.00 | 0.00 | 89 | 1017.3 |
| 20260906041553 | 74 | 0 | 0.0 | 2.6 | 0.00 | 0.00 | 0.00 | 89 | 1017.2 |
| 20260906040043 | 74 | 49 | 0.0 | 2.6 | 0.00 | 0.00 | 0.00 | 89 | 1017.2 |
| 20260906034544 | 74 | 0 | 0.0 | 1.7 | 0.00 | 0.00 | 0.00 | 90 | 1017.2 |
| 20260906033047 | 75 | 25 | 0.0 | 2.6 | 0.00 | 0.00 | 0.00 | 90 | 1017.3 |
| 20260906031544 | 75 | 0 | 0.0 | 2.6 | 0.00 | 0.00 | 0.00 | 91 | 1017.2 |
| 20260906030048 | 75 | 0 | 0.0 | 2.6 | 0.00 | 0.00 | 0.00 | 90 | 1017.0 |
| 20260906024607 | 75 | 0 | 0.0 | 1.7 | 0.00 | 0.00 | 0.00 | 90 | 1016.8 |
| 20260906023041 | 75 | 25 | 0.9 | 1.7 | 0.00 | 0.00 | 0.00 | 90 | 1016.5 |
| 20260906021542 | 75 | 0 | 0.0 | 1.7 | 0.00 | 0.00 | 0.00 | 89 | 1016.4 |
| 20260906020050 | 76 | 286 | 0.0 | 1.7 | 0.00 | 0.00 | 0.00 | 88 | 1016.3 |
| 20260906014551 | 76 | 0 | 0.0 | 0.9 | 0.00 | 0.00 | 0.00 | 87 | 1016.1 |
| 20260906013041 | 77 | 0 | 0.0 | 1.7 | 0.00 | 0.00 | 0.00 | 86 | 1015.9 |
| 20260906011557 | 77 | 173 | 0.0 | 4.3 | 0.00 | 0.00 | 0.00 | 85 | 1015.7 |
| 20260906010124 | 77 | 0 | 0.0 | 2.6 | 0.00 | 0.00 | 0.00 | 85 | 1015.7 |
| 20260906004547 | 77 | 48 | 0.0 | 2.6 | 0.00 | 0.00 | 0.00 | 85 | 1015.7 |
| 20260906003050 | 78 | 348 | 0.9 | 2.6 | 0.00 | 0.00 | 0.00 | 84 | 1015.7 |
| 20260906001601 | 78 | 0 | 0.0 | 2.6 | 0.00 | 0.00 | 0.00 | 84 | 1015.6 |
| 20260906000049 | 79 | 0 | 0.0 | 3.5 | 0.00 | 0.00 | 0.00 | 83 | 1015.5 |
| 20260905234544 | 79 | 157 | 0.0 | 3.5 | 0.00 | 0.00 | 0.00 | 83 | 1015.5 |
| 20260905233048 | 80 | 0 | 0.0 | 2.6 | 0.00 | 0.00 | 0.00 | 82 | 1015.5 |
| 20260905231550 | 80 | 56 | 0.9 | 5.2 | 0.00 | 0.00 | 0.00 | 81 | 1015.4 |
| 20260905230048 | 81 | 102 | 0.9 | 4.3 | 0.00 | 0.00 | 0.00 | 81 | 1015.4 |
| 20260905224550 | 82 | 42 | 0.9 | 3.5 | 0.00 | 0.00 | 0.00 | 80 | 1015.4 |
| 20260905223048 | 82 | 354 | 1.7 | 4.3 | 0.00 | 0.00 | 0.00 | 82 | 1015.0 |
| 20260905221551 | 83 | 57 | 1.7 | 5.2 | 0.00 | 0.00 | 0.00 | 80 | 1014.8 |
| 20260905220048 | 85 | 15 | 1.7 | 6.1 | 0.00 | 0.00 | 0.00 | 78 | 1014.6 |
| 20260905214547 | 86 | 354 | 0.9 | 6.1 | 0.00 | 0.00 | 0.00 | 78 | 1014.4 |
| 20260905213052 | 86 | 96 | 0.9 | 6.1 | 0.00 | 0.00 | 0.00 | 78 | 1014.4 |
| 20260905211549 | 86 | 13 | 0.9 | 5.2 | 0.00 | 0.00 | 0.00 | 78 | 1014.5 |
| 20260905210048 | 85 | 8 | 1.7 | 6.1 | 0.00 | 0.00 | 0.00 | 80 | 1014.8 |
| 20260905204546 | 86 | 0 | 0.9 | 5.2 | 0.00 | 0.00 | 0.00 | 80 | 1015.0 |
| 20260905203053 | 86 | 80 | 1.7 | 5.2 | 0.00 | 0.00 | 0.00 | 79 | 1015.3 |
| 20260905201558 | 86 | 57 | 1.7 | 6.1 | 0.00 | 0.00 | 0.00 | 79 | 1015.4 |
| 20260905200050 | 85 | 12 | 1.7 | 7.0 | 0.00 | 0.00 | 0.00 | 81 | 1015.5 |
| 20260905194548 | 84 | 355 | 1.7 | 5.2 | 0.00 | 0.00 | 0.00 | 82 | 1015.6 |
| 20260905193042 | 84 | 45 | 2.6 | 8.7 | 0.00 | 0.00 | 0.00 | 82 | 1015.7 |
| 20260905191547 | 84 | 44 | 1.7 | 7.8 | 0.00 | 0.00 | 0.00 | 83 | 1016.3 |
| 20260905190104 | 84 | 27 | 2.6 | 7.0 | 0.00 | 0.00 | 0.00 | 83 | 1016.5 |
| 20260905184548 | 84 | 352 | 1.7 | 5.2 | 0.00 | 0.00 | 0.00 | 84 | 1016.6 |
| 20260905183107 | 85 | 17 | 1.7 | 6.1 | 0.00 | 0.00 | 0.00 | 84 | 1016.7 |
| 20260905181547 | 85 | 164 | 1.7 | 4.3 | 0.00 | 0.00 | 0.00 | 83 | 1016.5 |
| 20260905180049 | 86 | 49 | 1.7 | 5.2 | 0.00 | 0.00 | 0.00 | 83 | 1016.7 |
| 20260905174542 | 86 | 20 | 0.9 | 2.6 | 0.00 | 0.00 | 0.00 | 82 | 1016.8 |
| 20260905173046 | 86 | 25 | 0.9 | 3.5 | 0.00 | 0.00 | 0.00 | 80 | 1016.4 |
| 20260905171551 | 86 | 6 | 0.9 | 3.5 | 0.00 | 0.00 | 0.00 | 81 | 1016.3 |
| 20260905170100 | 86 | 27 | 1.7 | 6.1 | 0.00 | 0.00 | 0.00 | 81 | 1016.3 |
| 20260905164549 | 85 | 352 | 0.9 | 4.3 | 0.00 | 0.00 | 0.00 | 82 | 1016.4 |
| 20260905163049 | 85 | 0 | 0.0 | 3.5 | 0.00 | 0.00 | 0.00 | 84 | 1016.6 |
| 20260905161541 | 84 | 0 | 0.9 | 3.5 | 0.00 | 0.00 | 0.00 | 83 | 1016.6 |
| 20260905160047 | 83 | 13 | 1.7 | 4.3 | 0.00 | 0.00 | 0.00 | 84 | 1016.5 |
| 20260905154546 | 83 | 47 | 0.9 | 4.3 | 0.00 | 0.00 | 0.00 | 84 | 1016.4 |
| 20260905153047 | 82 | 17 | 0.9 | 7.0 | 0.00 | 0.00 | 0.00 | 84 | 1016.5 |
| 20260905151548 | 81 | 74 | 1.7 | 5.2 | 0.00 | 0.00 | 0.00 | 83 | 1016.2 |
| 20260905150053 | 80 | 0 | 0.9 | 3.5 | 0.00 | 0.00 | 0.00 | 85 | 1016.0 |
| 20260905144548 | 79 | 15 | 0.9 | 3.5 | 0.00 | 0.00 | 0.00 | 84 | 1016.0 |
| 20260905143048 | 79 | 0 | 0.9 | 2.6 | 0.00 | 0.00 | 0.00 | 85 | 1015.8 |
| 20260905141542 | 78 | 0 | 0.9 | 2.6 | 0.00 | 0.00 | 0.00 | 86 | 1015.7 |
| 20260905140051 | 77 | 19 | 0.9 | 2.6 | 0.00 | 0.00 | 0.00 | 88 | 1015.7 |
| 20260905134551 | 75 | 0 | 0.0 | 1.7 | 0.00 | 0.00 | 0.00 | 92 | 1015.7 |
| 20260905133041 | 73 | 0 | 0.0 | 1.7 | 0.00 | 0.00 | 0.00 | 94 | 1015.4 |
| 20260905131548 | 72 | 0 | 0.0 | 0.0 | 0.00 | 0.00 | 0.00 | 95 | 1015.1 |
| 20260905130045 | 71 | 0 | 0.0 | 0.0 | 0.00 | 0.00 | 0.00 | 95 | 1015.0 |
| 20260905124541 | 71 | 0 | 0.0 | 0.0 | 0.00 | 0.00 | 0.00 | 96 | 1015.0 |
| 20260905123048 | 70 | 0 | 0.0 | 0.0 | 0.00 | 0.00 | 0.00 | 96 | 1014.9 |
| 20260905121549 | 70 | 0 | 0.0 | 0.0 | 0.00 | 0.00 | 0.00 | 96 | 1014.7 |
| 20260905120041 | 70 | 0 | 0.0 | 0.0 | 0.00 | 0.00 | 0.00 | 96 | 1014.6 |